createdAt,value
2018-07-15T00:01:22.062Z,89.15
2018-07-15T00:03:51.446Z,88.66
2018-07-15T00:06:20.132Z,89.21
2018-07-15T00:08:49.417Z,89.40
2018-07-15T00:11:18.116Z,89.09
2018-07-15T00:13:47.136Z,89.22
2018-07-15T00:16:15.741Z,88.99
2018-07-15T00:18:44.330Z,89.20
2018-07-15T00:21:13.063Z,89.46
2018-07-15T00:23:41.752Z,89.63
2018-07-15T00:26:11.040Z,90.06
2018-07-15T00:28:39.635Z,89.90
2018-07-15T00:31:08.417Z,89.60
2018-07-15T00:33:37.029Z,89.69
2018-07-15T00:36:06.447Z,89.74
2018-07-15T00:38:35.086Z,89.99
2018-07-15T00:41:03.786Z,89.70
2018-07-15T00:43:33.034Z,90.03
2018-07-15T00:46:02.111Z,89.72
2018-07-15T00:48:31.476Z,89.86
2018-07-15T00:51:00.793Z,90.18
2018-07-15T00:53:29.552Z,89.68
2018-07-15T00:55:58.348Z,89.81
2018-07-15T00:58:27.241Z,90.35
2018-07-15T01:01:01.437Z,90.74
2018-07-15T01:03:30.892Z,90.46
2018-07-15T01:05:59.836Z,90.76
2018-07-15T01:08:28.436Z,90.45
2018-07-15T01:10:57.256Z,90.49
2018-07-15T01:13:26.507Z,91.06
2018-07-15T01:15:55.162Z,91.23
2018-07-15T01:18:23.702Z,90.91
2018-07-15T01:20:52.318Z,90.61
2018-07-15T01:23:21.645Z,91.22
2018-07-15T01:25:50.728Z,91.60
2018-07-15T01:28:19.252Z,91.69
2018-07-15T01:30:48.294Z,91.69
2018-07-15T01:33:17.391Z,91.98
2018-07-15T01:35:46.042Z,92.07
2018-07-15T01:38:14.777Z,92.32
2018-07-15T01:40:43.342Z,92.82
2018-07-15T01:43:12.143Z,92.72
2018-07-15T01:45:40.852Z,92.38
2018-07-15T01:48:09.793Z,92.30
2018-07-15T01:50:38.361Z,92.29
2018-07-15T01:53:07.194Z,92.11
2018-07-15T01:55:35.878Z,92.52
2018-07-15T01:58:04.746Z,92.42
2018-07-15T02:00:33.343Z,92.92
2018-07-15T02:03:02.263Z,92.88
2018-07-15T02:05:31.708Z,93.22
2018-07-15T02:08:00.367Z,93.00
2018-07-15T02:10:29.007Z,92.72
2018-07-15T02:12:57.562Z,92.70
2018-07-15T02:15:26.307Z,92.92
2018-07-15T02:17:55.034Z,92.88
2018-07-15T02:20:23.751Z,93.08
2018-07-15T02:22:54.145Z,93.24
2018-07-15T02:25:23.481Z,93.51
2018-07-15T02:27:52.148Z,93.35
2018-07-15T02:30:21.643Z,93.34
2018-07-15T02:32:51.058Z,93.75
2018-07-15T02:35:19.609Z,93.84
2018-07-15T02:37:48.165Z,93.61
2018-07-15T02:40:17.047Z,94.03
2018-07-15T02:42:45.815Z,94.05
2018-07-15T02:45:14.792Z,94.51
2018-07-15T02:47:43.467Z,94.48
2018-07-15T02:50:12.225Z,94.23
2018-07-15T02:52:41.691Z,94.34
2018-07-15T02:55:11.122Z,94.58
2018-07-15T02:57:39.846Z,94.61
2018-07-15T03:00:09.571Z,94.78
2018-07-15T03:02:38.644Z,95.25
2018-07-15T03:05:07.294Z,95.36
2018-07-15T03:07:35.919Z,95.34
2018-07-15T03:10:04.669Z,95.24
2018-07-15T03:12:33.476Z,94.95
2018-07-15T03:15:02.049Z,95.02
2018-07-15T03:17:30.751Z,94.99
2018-07-15T03:19:59.325Z,95.13
2018-07-15T03:22:28.021Z,95.25
2018-07-15T03:24:56.748Z,95.41
2018-07-15T03:27:25.378Z,95.78
2018-07-15T03:29:53.948Z,95.34
2018-07-15T03:32:22.518Z,95.66
2018-07-15T03:34:51.018Z,95.00
2018-07-15T03:37:19.521Z,95.16
2018-07-15T03:39:48.285Z,94.95
2018-07-15T03:42:17.062Z,94.77
2018-07-15T03:44:45.799Z,95.12
2018-07-15T03:47:15.107Z,95.01
2018-07-15T03:49:44.027Z,94.82
2018-07-15T03:52:12.649Z,94.99
2018-07-15T03:54:41.679Z,95.40
2018-07-15T03:57:10.494Z,95.34
2018-07-15T03:59:39.225Z,95.18
2018-07-15T04:02:08.178Z,94.98
2018-07-15T04:04:36.937Z,94.73
2018-07-15T04:07:05.716Z,94.36
2018-07-15T04:09:34.307Z,94.05
2018-07-15T04:12:03.032Z,93.50
2018-07-15T04:14:31.679Z,93.46
2018-07-15T04:17:00.210Z,92.93
2018-07-15T04:19:28.786Z,92.99
2018-07-15T04:21:57.548Z,92.53
2018-07-15T04:24:27.367Z,92.37
2018-07-15T04:26:55.966Z,91.90
2018-07-15T04:29:24.814Z,91.81
2018-07-15T04:31:53.585Z,91.53
2018-07-15T04:34:22.323Z,91.21
2018-07-15T04:36:51.604Z,90.80
2018-07-15T04:39:20.132Z,90.17
2018-07-15T04:41:48.952Z,90.11
2018-07-15T04:44:17.603Z,89.89
2018-07-15T04:46:47.084Z,89.75
2018-07-15T04:49:15.633Z,89.96
2018-07-15T04:51:44.312Z,89.53
2018-07-15T04:54:12.852Z,89.02
2018-07-15T04:56:42.401Z,88.94
2018-07-15T04:59:11.022Z,89.12
2018-07-15T05:01:42.996Z,88.73
2018-07-15T05:04:13.411Z,88.28
2018-07-15T05:06:42.323Z,87.39
2018-07-15T05:09:11.438Z,86.84
2018-07-15T05:11:40.000Z,85.39
2018-07-15T05:14:09.190Z,85.26
2018-07-15T05:16:38.478Z,83.80
2018-07-15T05:19:07.092Z,83.20
2018-07-15T05:21:35.658Z,82.67
2018-07-15T05:24:04.244Z,81.69
2018-07-15T05:26:33.085Z,79.87
2018-07-15T05:29:02.389Z,77.89
2018-07-15T05:31:31.105Z,75.02
2018-07-15T05:33:59.802Z,73.25
2018-07-15T05:36:28.533Z,71.29
2018-07-15T05:38:57.353Z,68.88
2018-07-15T05:41:26.354Z,67.13
2018-07-15T05:43:55.207Z,65.31
2018-07-15T05:46:23.993Z,63.54
2018-07-15T05:48:52.593Z,62.71
2018-07-15T05:51:21.380Z,61.00
2018-07-15T05:53:50.667Z,60.39
2018-07-15T05:56:19.227Z,58.56
2018-07-15T05:58:48.032Z,58.02
2018-07-15T06:01:16.665Z,56.89
2018-07-15T06:03:45.228Z,55.44
2018-07-15T06:06:13.814Z,54.16
2018-07-15T06:08:44.137Z,52.09
2018-07-15T06:11:12.718Z,51.24
2018-07-15T06:13:41.623Z,50.42
2018-07-15T06:16:11.057Z,49.93
2018-07-15T06:18:39.813Z,49.06
2018-07-15T06:21:08.894Z,48.74
2018-07-15T06:23:37.605Z,47.73
2018-07-15T06:26:06.364Z,47.46
2018-07-15T06:28:34.959Z,46.26
2018-07-15T06:31:04.142Z,45.26
2018-07-15T06:33:33.179Z,47.01
2018-07-15T06:36:01.912Z,47.94
2018-07-15T06:38:30.418Z,45.69
2018-07-15T06:40:59.085Z,41.48
2018-07-15T06:43:27.764Z,41.22
2018-07-15T06:45:56.418Z,41.31
2018-07-15T06:48:25.041Z,41.70
2018-07-15T06:50:53.859Z,41.63
2018-07-15T06:53:23.340Z,43.72
2018-07-15T06:55:51.979Z,44.43
2018-07-15T06:58:20.645Z,45.73
2018-07-15T07:00:49.754Z,46.77
2018-07-15T07:03:18.398Z,47.46
2018-07-15T07:05:47.198Z,47.41
2018-07-15T07:08:15.780Z,49.06
2018-07-15T07:10:44.378Z,46.95
2018-07-15T07:13:12.978Z,46.73
2018-07-15T07:15:41.795Z,45.45
2018-07-15T07:18:10.478Z,45.21
2018-07-15T07:20:39.360Z,42.47
2018-07-15T07:23:07.960Z,40.22
2018-07-15T07:25:36.874Z,39.69
2018-07-15T07:28:05.693Z,40.03
2018-07-15T07:30:34.582Z,39.07
2018-07-15T07:33:03.546Z,38.07
2018-07-15T07:35:32.295Z,37.93
2018-07-15T07:38:01.364Z,36.70
2018-07-15T07:40:30.109Z,35.26
2018-07-15T07:42:58.789Z,35.02
2018-07-15T07:45:27.690Z,36.27
2018-07-15T07:47:56.488Z,38.16
2018-07-15T07:50:25.539Z,39.84
2018-07-15T07:52:55.122Z,40.33
2018-07-15T07:55:23.785Z,41.86
2018-07-15T07:57:52.589Z,40.61
2018-07-15T08:00:21.479Z,39.12
2018-07-15T08:02:50.859Z,38.81
2018-07-15T08:05:19.804Z,39.32
2018-07-15T08:07:49.286Z,39.01
2018-07-15T08:10:18.236Z,39.96
2018-07-15T08:12:46.907Z,43.25
2018-07-15T08:15:15.796Z,43.20
2018-07-15T08:17:44.609Z,43.92
2018-07-15T08:20:13.259Z,43.67
2018-07-15T08:22:42.067Z,42.85
2018-07-15T08:25:11.845Z,44.42
2018-07-15T08:27:40.578Z,41.65
2018-07-15T08:30:20.201Z,39.11
2018-07-15T08:32:49.103Z,38.81
2018-07-15T08:35:18.407Z,37.89
2018-07-15T08:37:47.095Z,35.18
2018-07-15T08:40:15.885Z,34.32
2018-07-15T08:42:44.757Z,33.75
2018-07-15T08:45:13.580Z,32.70
2018-07-15T08:47:42.355Z,32.90
2018-07-15T08:50:10.991Z,30.78
2018-07-15T08:52:39.883Z,28.50
2018-07-15T08:55:08.805Z,25.97
2018-07-15T08:57:37.470Z,25.62
2018-07-15T09:00:06.314Z,24.26
2018-07-15T09:02:35.888Z,25.06
2018-07-15T09:05:04.748Z,26.63
2018-07-15T09:07:34.453Z,25.79
2018-07-15T09:10:03.254Z,24.62
2018-07-15T09:12:31.937Z,23.64
2018-07-15T09:15:01.004Z,22.38
2018-07-15T09:17:29.784Z,22.07
2018-07-15T09:19:58.450Z,22.25
2018-07-15T09:22:27.364Z,21.80
2018-07-15T09:24:56.020Z,21.12
2018-07-15T09:27:24.895Z,20.50
2018-07-15T09:29:53.608Z,22.00
2018-07-15T09:32:22.591Z,21.02
2018-07-15T09:34:51.451Z,21.91
2018-07-15T09:37:20.234Z,24.58
2018-07-15T09:39:48.910Z,27.58
2018-07-15T09:42:17.829Z,27.73
2018-07-15T09:44:46.810Z,26.71
2018-07-15T09:47:16.134Z,25.00
2018-07-15T09:49:45.021Z,24.23
2018-07-15T09:52:13.825Z,22.58
2018-07-15T09:54:42.589Z,22.28
2018-07-15T09:57:11.476Z,20.56
2018-07-15T09:59:40.111Z,20.62
2018-07-15T10:02:08.911Z,20.39
2018-07-15T10:04:37.843Z,19.89
2018-07-15T10:07:06.564Z,18.43
2018-07-15T10:09:35.440Z,16.89
2018-07-15T10:12:04.299Z,16.33
2018-07-15T10:14:33.427Z,17.11
2018-07-15T10:17:02.386Z,17.18
2018-07-15T10:19:31.089Z,17.62
2018-07-15T10:22:07.226Z,16.39
2018-07-15T10:24:35.913Z,15.58
2018-07-15T10:27:04.516Z,15.23
2018-07-15T10:29:33.895Z,14.09
2018-07-15T10:32:02.824Z,13.94
2018-07-15T10:34:31.488Z,14.40
2018-07-15T10:37:00.543Z,14.02
2018-07-15T10:39:29.173Z,14.05
2018-07-15T10:41:57.819Z,13.63
2018-07-15T10:44:26.541Z,15.93
2018-07-15T10:46:55.386Z,16.75
2018-07-15T10:49:24.283Z,17.51
2018-07-15T10:51:53.191Z,19.27
2018-07-15T10:54:22.128Z,20.95
2018-07-15T10:56:51.235Z,22.65
2018-07-15T10:59:20.153Z,23.62
2018-07-15T11:01:48.969Z,24.01
2018-07-15T11:04:17.791Z,24.38
2018-07-15T11:06:46.414Z,25.95
2018-07-15T11:09:15.328Z,25.72
2018-07-15T11:11:44.700Z,26.26
2018-07-15T11:14:13.478Z,26.42
2018-07-15T11:16:42.227Z,27.10
2018-07-15T11:19:10.900Z,28.92
2018-07-15T11:21:39.528Z,30.45
2018-07-15T11:24:08.545Z,29.78
2018-07-15T11:26:37.370Z,29.90
2018-07-15T11:29:06.223Z,30.33
2018-07-15T11:31:34.904Z,37.66
2018-07-15T11:34:03.761Z,40.51
2018-07-15T11:36:32.677Z,43.33
2018-07-15T11:39:02.241Z,45.59
2018-07-15T11:41:30.881Z,51.86
2018-07-15T11:43:59.502Z,52.91
2018-07-15T11:46:28.479Z,56.68
2018-07-15T11:48:57.304Z,57.85
2018-07-15T11:51:26.037Z,60.11
2018-07-15T11:53:54.766Z,60.68
2018-07-15T11:56:23.824Z,60.58
2018-07-15T11:58:52.620Z,61.12
2018-07-15T12:01:21.330Z,61.60
2018-07-15T12:03:49.941Z,59.03
2018-07-15T12:06:18.909Z,57.39
2018-07-15T12:08:48.283Z,58.01
2018-07-15T12:11:17.430Z,60.32
2018-07-15T12:13:46.406Z,62.75
2018-07-15T12:16:15.296Z,66.46
2018-07-15T12:18:44.155Z,69.31
2018-07-15T12:21:13.165Z,69.60
2018-07-15T12:23:42.095Z,68.58
2018-07-15T12:26:10.640Z,68.58
2018-07-15T12:28:40.461Z,69.92
2018-07-15T12:31:10.645Z,68.11
2018-07-15T12:33:39.346Z,67.27
2018-07-15T12:36:09.556Z,66.80
2018-07-15T12:38:38.720Z,66.88
2018-07-15T12:41:08.140Z,66.39
2018-07-15T12:43:37.131Z,65.87
2018-07-15T12:46:06.546Z,64.97
2018-07-15T12:48:35.225Z,60.52
2018-07-15T12:51:04.018Z,61.30
2018-07-15T12:53:33.836Z,63.00
2018-07-15T12:56:03.321Z,62.24
2018-07-15T12:58:32.297Z,62.10
2018-07-15T13:01:01.851Z,62.08
2018-07-15T13:03:30.912Z,59.54
2018-07-15T13:05:59.791Z,60.95
2018-07-15T13:08:28.711Z,61.55
2018-07-15T13:10:57.562Z,61.29
2018-07-15T13:13:26.362Z,58.44
2018-07-15T13:15:55.278Z,57.72
2018-07-15T13:18:23.979Z,57.29
2018-07-15T13:20:52.701Z,56.76
2018-07-15T13:23:21.677Z,58.52
2018-07-15T13:25:50.632Z,57.03
2018-07-15T13:28:19.604Z,60.62
2018-07-15T13:30:48.422Z,60.00
2018-07-15T13:33:17.326Z,56.78
2018-07-15T13:35:46.116Z,58.45
2018-07-15T13:38:14.780Z,57.84
2018-07-15T13:40:43.733Z,58.20
2018-07-15T13:43:12.566Z,58.79
2018-07-15T13:45:41.274Z,60.49
2018-07-15T13:48:10.198Z,60.88
2018-07-15T13:50:39.187Z,57.15
2018-07-15T13:53:08.325Z,57.92
2018-07-15T13:55:37.646Z,58.74
2018-07-15T13:58:06.573Z,57.46
2018-07-15T14:00:36.198Z,57.80
2018-07-15T14:03:05.348Z,57.64
2018-07-15T14:05:33.957Z,61.61
2018-07-15T14:08:02.976Z,59.13
2018-07-15T14:10:32.226Z,57.71
2018-07-15T14:13:00.917Z,58.17
2018-07-15T14:15:29.840Z,57.91
2018-07-15T14:17:58.837Z,55.65
2018-07-15T14:20:27.584Z,55.95
2018-07-15T14:22:56.260Z,53.99
2018-07-15T14:25:25.139Z,54.31
2018-07-15T14:27:53.885Z,52.88
2018-07-15T14:30:22.973Z,52.28
2018-07-15T14:32:51.780Z,55.40
2018-07-15T14:35:20.414Z,55.37
2018-07-15T14:37:49.200Z,55.54
2018-07-15T14:40:17.887Z,55.32
2018-07-15T14:42:46.715Z,56.24
2018-07-15T14:45:16.061Z,56.20
2018-07-15T14:47:44.801Z,55.11
2018-07-15T14:50:14.490Z,55.75
2018-07-15T14:52:43.312Z,54.76
2018-07-15T14:55:12.233Z,54.25
2018-07-15T14:57:41.407Z,54.24
2018-07-15T15:00:10.697Z,54.69
2018-07-15T15:02:39.603Z,55.22
2018-07-15T15:05:08.651Z,54.21
2018-07-15T15:07:37.336Z,54.06
2018-07-15T15:10:06.403Z,54.48
2018-07-15T15:12:35.471Z,53.63
2018-07-15T15:15:04.336Z,53.21
2018-07-15T15:17:33.157Z,53.41
2018-07-15T15:20:01.730Z,54.00
2018-07-15T15:22:30.701Z,55.04
2018-07-15T15:24:59.706Z,54.37
2018-07-15T15:27:28.456Z,54.82
2018-07-15T15:29:58.687Z,54.84
2018-07-15T15:32:27.436Z,54.92
2018-07-15T15:34:56.157Z,54.83
2018-07-15T15:37:25.213Z,55.22
2018-07-15T15:39:54.175Z,54.42
2018-07-15T15:42:23.827Z,52.48
2018-07-15T15:44:52.822Z,51.10
2018-07-15T15:47:22.822Z,50.82
2018-07-15T15:49:52.302Z,50.57
2018-07-15T15:52:21.407Z,50.75
2018-07-15T15:54:50.377Z,50.20
2018-07-15T15:57:19.066Z,50.53
2018-07-15T15:59:48.171Z,50.09
2018-07-15T16:02:23.706Z,49.81
2018-07-15T16:04:52.656Z,50.93
2018-07-15T16:07:21.499Z,50.00
2018-07-15T16:09:50.831Z,50.97
2018-07-15T16:12:19.948Z,51.99
2018-07-15T16:14:49.196Z,51.70
2018-07-15T16:17:18.424Z,50.10
2018-07-15T16:19:47.859Z,49.89
2018-07-15T16:22:16.798Z,48.15
2018-07-15T16:24:46.089Z,46.21
2018-07-15T16:27:15.568Z,45.56
2018-07-15T16:29:44.249Z,45.49
2018-07-15T16:32:13.978Z,43.95
2018-07-15T16:34:43.042Z,43.37
2018-07-15T16:37:13.266Z,43.97
2018-07-15T16:39:42.407Z,43.76
2018-07-15T16:42:11.677Z,44.19
2018-07-15T16:44:41.932Z,43.60
2018-07-15T16:47:11.059Z,43.80
2018-07-15T16:49:40.386Z,42.58
2018-07-15T16:52:09.223Z,40.99
2018-07-15T16:54:38.333Z,39.51
2018-07-15T16:57:07.187Z,39.11
2018-07-15T16:59:36.170Z,39.59
2018-07-15T17:02:05.594Z,40.45
2018-07-15T17:04:34.646Z,40.54
2018-07-15T17:07:03.682Z,39.66
2018-07-15T17:09:32.536Z,39.58
2018-07-15T17:12:01.667Z,39.25
2018-07-15T17:14:30.852Z,38.85
2018-07-15T17:16:59.801Z,38.98
2018-07-15T17:19:29.156Z,38.56
2018-07-15T17:21:58.551Z,39.25
2018-07-15T17:24:27.666Z,38.66
2018-07-15T17:26:56.606Z,37.98
2018-07-15T17:29:25.534Z,38.75
2018-07-15T17:31:54.517Z,38.37
2018-07-15T17:34:23.519Z,40.31
2018-07-15T17:36:52.434Z,40.75
2018-07-15T17:39:21.612Z,41.70
2018-07-15T17:41:50.734Z,42.55
2018-07-15T17:44:20.213Z,43.53
2018-07-15T17:46:49.487Z,43.84
2018-07-15T17:49:19.041Z,45.81
2018-07-15T17:51:48.057Z,46.56
2018-07-15T17:54:18.065Z,46.66
2018-07-15T17:56:47.065Z,46.35
2018-07-15T17:59:16.019Z,48.40
2018-07-15T18:01:45.064Z,48.37
2018-07-15T18:04:14.257Z,46.79
2018-07-15T18:06:43.353Z,46.68
2018-07-15T18:09:12.502Z,47.13
2018-07-15T18:11:41.845Z,48.51
2018-07-15T18:14:11.062Z,52.41
2018-07-15T18:16:40.144Z,53.35
2018-07-15T18:19:09.336Z,52.03
2018-07-15T18:21:38.706Z,52.52
2018-07-15T18:24:07.742Z,53.05
2018-07-15T18:26:36.995Z,54.72
2018-07-15T18:29:05.962Z,56.45
2018-07-15T18:31:34.987Z,59.26
2018-07-15T18:34:04.931Z,60.35
2018-07-15T18:36:34.019Z,59.29
2018-07-15T18:39:03.414Z,59.50
2018-07-15T18:41:32.513Z,60.07
2018-07-15T18:44:01.249Z,58.98
2018-07-15T18:46:30.571Z,59.39
2018-07-15T18:48:59.512Z,60.09
2018-07-15T18:51:28.373Z,60.37
2018-07-15T18:53:57.167Z,62.23
2018-07-15T18:56:26.105Z,62.00
2018-07-15T18:58:55.252Z,61.77
2018-07-15T19:01:24.427Z,61.58
2018-07-15T19:03:53.548Z,61.58
2018-07-15T19:06:22.857Z,62.68
2018-07-15T19:08:53.158Z,64.08
2018-07-15T19:11:23.214Z,64.54
2018-07-15T19:13:52.410Z,64.99
2018-07-15T19:16:21.537Z,65.49
2018-07-15T19:18:50.678Z,64.81
2018-07-15T19:21:20.057Z,63.93
2018-07-15T19:23:49.229Z,65.20
2018-07-15T19:26:18.289Z,67.84
2018-07-15T19:28:47.495Z,69.35
2018-07-15T19:31:17.188Z,71.21
2018-07-15T19:33:46.198Z,71.98
2018-07-15T19:36:15.382Z,72.38
2018-07-15T19:38:44.426Z,73.02
2018-07-15T19:41:13.284Z,73.45
2018-07-15T19:43:42.989Z,73.67
2018-07-15T19:46:12.110Z,73.92
2018-07-15T19:48:40.958Z,74.03
2018-07-15T19:51:10.251Z,73.96
2018-07-15T19:53:39.644Z,74.21
2018-07-15T19:56:08.940Z,72.78
2018-07-15T19:58:38.349Z,73.41
2018-07-15T20:01:07.947Z,72.95
2018-07-15T20:03:36.828Z,73.75
2018-07-15T20:06:06.083Z,72.50
2018-07-15T20:08:35.228Z,74.31
2018-07-15T20:11:04.711Z,74.33
2018-07-15T20:13:34.087Z,74.78
2018-07-15T20:16:02.974Z,75.59
2018-07-15T20:18:32.057Z,75.22
2018-07-15T20:21:01.359Z,75.17
2018-07-15T20:23:30.324Z,75.38
2018-07-15T20:25:59.617Z,76.27
2018-07-15T20:28:28.809Z,76.55
2018-07-15T20:30:57.997Z,77.16
2018-07-15T20:33:26.955Z,76.70
2018-07-15T20:35:55.760Z,76.81
2018-07-15T20:38:24.498Z,75.88
2018-07-15T20:40:53.343Z,75.12
2018-07-15T20:43:22.352Z,75.74
2018-07-15T20:45:51.545Z,76.74
2018-07-15T20:48:20.373Z,77.16
2018-07-15T20:50:49.274Z,76.78
2018-07-15T20:53:18.189Z,75.52
2018-07-15T20:55:47.407Z,76.52
2018-07-15T20:58:16.514Z,76.60
2018-07-15T21:00:46.000Z,76.16
2018-07-15T21:03:17.265Z,78.33
2018-07-15T21:05:46.436Z,78.07
2018-07-15T21:08:15.548Z,78.66
2018-07-15T21:10:44.788Z,78.69
2018-07-15T21:13:13.870Z,79.17
2018-07-15T21:15:42.795Z,78.95
2018-07-15T21:18:11.550Z,78.94
2018-07-15T21:20:40.495Z,78.87
2018-07-15T21:23:09.304Z,78.77
2018-07-15T21:25:38.277Z,79.00
2018-07-15T21:28:07.290Z,79.85
2018-07-15T21:30:36.133Z,79.65
2018-07-15T21:33:04.893Z,79.31
2018-07-15T21:35:33.926Z,79.48
2018-07-15T21:38:02.853Z,78.90
2018-07-15T21:40:31.774Z,78.55
2018-07-15T21:43:00.695Z,79.39
2018-07-15T21:45:29.636Z,80.08
2018-07-15T21:47:58.464Z,80.75
2018-07-15T21:50:27.352Z,80.06
2018-07-15T21:52:56.263Z,80.07
2018-07-15T21:55:24.980Z,79.55
2018-07-15T21:57:53.992Z,79.73
2018-07-15T22:00:22.888Z,80.44
2018-07-15T22:02:52.232Z,81.56
2018-07-15T22:05:21.134Z,81.17
2018-07-15T22:08:00.833Z,80.64
2018-07-15T22:10:34.808Z,81.33
2018-07-15T22:13:03.745Z,81.51
2018-07-15T22:15:33.255Z,82.00
2018-07-15T22:18:02.145Z,81.31
2018-07-15T22:20:31.014Z,81.16
2018-07-15T22:22:59.754Z,80.14
2018-07-15T22:25:28.454Z,79.92
2018-07-15T22:27:57.428Z,81.11
2018-07-15T22:30:26.529Z,82.05
2018-07-15T22:32:55.243Z,82.03
2018-07-15T22:35:24.169Z,81.72
2018-07-15T22:37:53.123Z,81.62
2018-07-15T22:40:21.930Z,82.45
2018-07-15T22:42:50.642Z,82.26
2018-07-15T22:45:20.006Z,82.33
2018-07-15T22:47:49.398Z,83.69
2018-07-15T22:50:18.368Z,82.99
2018-07-15T22:52:47.099Z,82.85
2018-07-15T22:55:15.884Z,81.99
2018-07-15T22:57:44.749Z,82.09
2018-07-15T23:00:13.575Z,82.38
2018-07-15T23:02:42.520Z,81.12
2018-07-15T23:05:51.623Z,81.79
2018-07-15T23:08:20.679Z,83.37
2018-07-15T23:10:50.328Z,82.99
2018-07-15T23:13:19.418Z,83.00
2018-07-15T23:15:48.415Z,82.71
2018-07-15T23:18:16.981Z,82.72
2018-07-15T23:20:46.597Z,81.91
2018-07-15T23:23:15.778Z,83.24
2018-07-15T23:25:44.484Z,84.23
2018-07-15T23:28:14.759Z,84.45
2018-07-15T23:30:43.976Z,84.59
2018-07-15T23:33:14.453Z,83.69
2018-07-15T23:35:43.025Z,83.69
2018-07-15T23:38:11.701Z,83.23
2018-07-15T23:40:40.943Z,83.34
2018-07-15T23:43:09.553Z,83.09
2018-07-15T23:45:38.320Z,82.62
2018-07-15T23:48:07.216Z,82.58
2018-07-15T23:50:35.849Z,83.23
2018-07-15T23:53:04.704Z,82.32
2018-07-15T23:55:34.247Z,83.01
2018-07-15T23:58:02.920Z,83.03
